Time;durP1;ratioP1;P1;durP2;ratioP2;P2;SDS_P1;SDS_P2;PMS_P1;PMS_P2;Temp;Humidity;BMP_temperature;BMP_pressure;BME280_temperature;BME280_humidity;BME280_pressure;Samples;Min_cycle;Max_cycle;Signal;HPM_P1;HPM_P2
2021/12/23 00:02:07;;;;;;;83.78;36.90;;;;;;;;;;5059547;28;20496;-76
2021/12/23 00:04:33;;;;;;;90.28;32.13;;;;;;;;;;5043803;28;20025;-76
2021/12/23 00:06:59;;;;;;;93.85;31.90;;;;;;;;;;5060087;28;20100;-75
2021/12/23 00:09:34;;;;;;;73.78;31.75;;;;;;;;;;5059137;28;20017;-76
2021/12/23 00:12:01;;;;;;;102.07;31.63;;;;;;;;;;5060906;28;20024;-77
2021/12/23 00:14:27;;;;;;;84.85;31.63;;;;;;;;;;5043635;28;20024;-76
2021/12/23 00:17:17;;;;;;;96.55;36.08;;;;;;;;;;5059969;28;20119;-77
2021/12/23 00:19:58;;;;;;;112.18;42.15;;;;;;;;;;5077020;28;20395;-76
2021/12/23 00:25:08;;;;;;;95.00;34.95;;;;;;;;;;5077223;28;20103;-75
2021/12/23 00:27:34;;;;;;;97.93;42.97;;;;;;;;;;5077429;28;20024;-77
2021/12/23 00:30:00;;;;;;;93.68;37.85;;;;;;;;;;5059127;28;20107;-77
2021/12/23 00:32:26;;;;;;;73.65;30.63;;;;;;;;;;5059741;28;20028;-75
2021/12/23 00:34:52;;;;;;;86.00;30.55;;;;;;;;;;5077204;28;20124;-75
2021/12/23 00:37:19;;;;;;;89.32;30.65;;;;;;;;;;5077891;28;20028;-76
2021/12/23 00:39:45;;;;;;;89.22;33.78;;;;;;;;;;5042914;28;20024;-75
2021/12/23 00:42:12;;;;;;;91.30;34.88;;;;;;;;;;5059467;28;20508;-77
2021/12/23 00:44:47;;;;;;;83.18;35.75;;;;;;;;;;5058808;28;20025;-77
2021/12/23 00:47:13;;;;;;;73.93;31.35;;;;;;;;;;5042729;28;20368;-75
2021/12/23 00:49:39;;;;;;;84.40;35.13;;;;;;;;;;5077727;28;20035;-75
2021/12/23 00:52:08;;;;;;;91.18;32.78;;;;;;;;;;5077850;28;20020;-76
2021/12/23 00:54:34;;;;;;;84.38;33.88;;;;;;;;;;5043402;28;20326;-77
2021/12/23 00:57:00;;;;;;;86.25;31.98;;;;;;;;;;5043439;28;20016;-76
2021/12/23 00:59:26;;;;;;;86.43;29.70;;;;;;;;;;5059438;28;20051;-76
2021/12/23 01:01:52;;;;;;;85.28;31.73;;;;;;;;;;5059878;28;20326;-76
2021/12/23 01:04:19;;;;;;;78.45;35.15;;;;;;;;;;5058639;28;20013;-77
2021/12/23 01:06:45;;;;;;;90.43;40.78;;;;;;;;;;5042159;28;20060;-76
2021/12/23 01:09:11;;;;;;;90.60;36.38;;;;;;;;;;5042337;28;20063;-76
2021/12/23 01:11:37;;;;;;;99.68;36.35;;;;;;;;;;5076368;28;20062;-75
2021/12/23 01:19:17;;;;;;;90.45;35.63;;;;;;;;;;5078052;28;20028;-74
2021/12/23 01:21:43;;;;;;;128.68;62.78;;;;;;;;;;5061155;28;20033;-75
2021/12/23 01:24:10;;;;;;;162.48;82.95;;;;;;;;;;5059887;28;20380;-75
2021/12/23 01:26:38;;;;;;;141.35;71.50;;;;;;;;;;5042435;28;20048;-75
2021/12/23 01:29:04;;;;;;;181.65;99.57;;;;;;;;;;5057378;28;20414;-75
2021/12/23 01:31:31;;;;;;;176.23;87.25;;;;;;;;;;5076573;28;20076;-75
2021/12/23 01:34:13;;;;;;;137.63;69.03;;;;;;;;;;5057183;28;20067;-75
2021/12/23 01:37:09;;;;;;;130.68;62.92;;;;;;;;;;5040672;28;20028;-75
2021/12/23 01:39:44;;;;;;;136.10;59.67;;;;;;;;;;5044687;28;20437;-75
2021/12/23 01:42:25;;;;;;;132.45;51.28;;;;;;;;;;5059650;28;20056;-75
2021/12/23 01:44:56;;;;;;;103.43;40.97;;;;;;;;;;5045798;28;20318;-76
2021/12/23 01:47:30;;;;;;;188.27;77.50;;;;;;;;;;5046009;28;20052;-76
2021/12/23 01:50:10;;;;;;;118.25;51.00;;;;;;;;;;5046424;28;20016;-75
2021/12/23 01:52:45;;;;;;;117.28;53.53;;;;;;;;;;5045584;28;20109;-76
2021/12/23 01:55:35;;;;;;;134.82;58.00;;;;;;;;;;5045292;28;20012;-75
2021/12/23 01:58:27;;;;;;;151.88;68.47;;;;;;;;;;5045890;28;20040;-76
2021/12/23 02:01:00;;;;;;;161.70;67.70;;;;;;;;;;5044675;28;20044;-75
2021/12/23 02:03:27;;;;;;;151.75;63.22;;;;;;;;;;5061015;28;20021;-75
2021/12/23 02:06:08;;;;;;;151.77;65.40;;;;;;;;;;5061652;28;20410;-76
2021/12/23 02:08:44;;;;;;;230.90;102.50;;;;;;;;;;5044238;28;20023;-75
2021/12/23 02:11:15;;;;;;;162.73;63.90;;;;;;;;;;5045066;28;20028;-75
2021/12/23 02:13:41;;;;;;;;;;;;;;;;;;5045190;28;20335;-77
2021/12/23 02:16:16;;;;;;;144.43;51.65;;;;;;;;;;5044771;28;19904;-77
2021/12/23 02:18:52;;;;;;;117.93;45.53;;;;;;;;;;5044866;28;20441;-76
2021/12/23 02:21:25;;;;;;;129.25;47.00;;;;;;;;;;5044331;28;20451;-75
2021/12/23 02:23:53;;;;;;;126.53;50.97;;;;;;;;;;5060774;28;20089;-75
2021/12/23 02:26:23;;;;;;;136.00;49.55;;;;;;;;;;5061669;28;20020;-76
2021/12/23 02:28:57;;;;;;;159.15;58.58;;;;;;;;;;5044857;28;20009;-76
2021/12/23 02:31:35;;;;;;;128.02;55.03;;;;;;;;;;5044318;28;20028;-75
2021/12/23 02:34:08;;;;;;;124.97;49.10;;;;;;;;;;5043146;28;20016;-76
2021/12/23 02:36:42;;;;;;;145.77;66.85;;;;;;;;;;5045125;28;20437;-76
2021/12/23 02:39:16;;;;;;;145.95;72.43;;;;;;;;;;5044403;28;20066;-76
2021/12/23 02:41:48;;;;;;;180.07;73.15;;;;;;;;;;5060471;28;20065;-75
2021/12/23 02:44:15;;;;;;;;;;;;;;;;;;5060235;28;20021;-76
2021/12/23 02:46:50;;;;;;;145.48;63.00;;;;;;;;;;5061646;28;19910;-77
2021/12/23 02:49:27;;;;;;;130.90;61.88;;;;;;;;;;5043117;28;20017;-76
2021/12/23 02:51:54;;;;;;;122.97;51.85;;;;;;;;;;5061207;28;20107;-75
2021/12/23 02:54:26;;;;;;;129.20;54.47;;;;;;;;;;5040327;28;20070;-75
2021/12/23 02:57:09;;;;;;;158.30;59.28;;;;;;;;;;5057547;28;20028;-75
2021/12/23 02:59:44;;;;;;;150.13;65.65;;;;;;;;;;5040619;28;20036;-76
2021/12/23 03:02:12;;;;;;;159.63;71.85;;;;;;;;;;5041103;28;20008;-75
2021/12/23 03:04:45;;;;;;;166.52;62.92;;;;;;;;;;5054777;28;20017;-75
2021/12/23 03:07:20;;;;;;;181.32;66.63;;;;;;;;;;5039827;28;20040;-76
2021/12/23 03:09:51;;;;;;;160.65;70.10;;;;;;;;;;5042657;28;20036;-76
2021/12/23 03:12:19;;;;;;;158.90;73.70;;;;;;;;;;5042866;28;20433;-77
2021/12/23 03:14:47;;;;;;;169.82;77.88;;;;;;;;;;5041817;28;20017;-75
2021/12/23 03:17:26;;;;;;;177.98;75.72;;;;;;;;;;5059096;28;20066;-75
2021/12/23 03:20:44;;;;;;;178.52;82.10;;;;;;;;;;5039978;28;20291;-75
2021/12/23 03:23:29;;;;;;;218.00;90.68;;;;;;;;;;5059814;28;20016;-75
2021/12/23 03:26:07;;;;;;;212.45;83.53;;;;;;;;;;5040930;28;20024;-75
2021/12/23 03:28:40;;;;;;;176.88;83.93;;;;;;;;;;5039909;28;20094;-75
2021/12/23 03:31:08;;;;;;;192.13;85.57;;;;;;;;;;5058339;28;20076;-75
2021/12/23 03:33:37;;;;;;;211.80;90.53;;;;;;;;;;5059053;28;20045;-75
2021/12/23 03:36:11;;;;;;;178.95;85.82;;;;;;;;;;5041327;28;20406;-75
2021/12/23 03:38:43;;;;;;;208.50;94.57;;;;;;;;;;5040906;28;20028;-75
2021/12/23 03:41:32;;;;;;;192.82;91.50;;;;;;;;;;5043326;28;20016;-75
2021/12/23 03:44:03;;;;;;;191.00;95.78;;;;;;;;;;5043498;28;20029;-75
2021/12/23 03:46:38;;;;;;;230.75;103.10;;;;;;;;;;5060673;28;20055;-76
2021/12/23 03:49:09;;;;;;;211.23;89.45;;;;;;;;;;5044123;28;20012;-75
2021/12/23 03:51:37;;;;;;;219.80;95.40;;;;;;;;;;5041591;28;20024;-76
2021/12/23 03:54:05;;;;;;;194.13;91.20;;;;;;;;;;5041535;28;20358;-76
2021/12/23 03:56:35;;;;;;;159.70;67.32;;;;;;;;;;5041762;28;20107;-77
2021/12/23 03:59:07;;;;;;;152.07;59.88;;;;;;;;;;5075171;28;20024;-76
2021/12/23 04:01:34;;;;;;;131.18;44.78;;;;;;;;;;5042097;28;20107;-76
2021/12/23 04:04:00;;;;;;;121.95;40.95;;;;;;;;;;5059068;28;20119;-77
2021/12/23 04:06:38;;;;;;;123.88;50.30;;;;;;;;;;5077713;28;20259;-76
2021/12/23 04:09:15;;;;;;;153.98;43.92;;;;;;;;;;5042232;28;20116;-75
2021/12/23 04:11:51;;;;;;;130.07;41.00;;;;;;;;;;5059965;28;20031;-75
2021/12/23 04:14:33;;;;;;;116.90;36.55;;;;;;;;;;5028591;28;20292;-75
2021/12/23 04:16:59;;;;;;;101.13;37.40;;;;;;;;;;5042126;28;20016;-75
2021/12/23 04:19:31;;;;;;;114.93;37.65;;;;;;;;;;5041512;28;20052;-75
2021/12/23 04:22:22;;;;;;;87.50;35.72;;;;;;;;;;5059191;28;20043;-76
2021/12/23 04:24:59;;;;;;;95.13;30.92;;;;;;;;;;5038140;28;20028;-76
2021/12/23 04:27:25;;;;;;;81.30;28.77;;;;;;;;;;5055151;28;20036;-76
2021/12/23 04:29:51;;;;;;;73.97;24.85;;;;;;;;;;5040936;28;20437;-76
2021/12/23 04:32:18;;;;;;;83.15;24.52;;;;;;;;;;5053767;28;20121;-76
2021/12/23 04:34:52;;;;;;;56.28;19.50;;;;;;;;;;5056411;28;20016;-75
2021/12/23 04:37:22;;;;;;;69.28;20.23;;;;;;;;;;5036900;28;20083;-76
2021/12/23 04:39:49;;;;;;;88.97;23.00;;;;;;;;;;5037785;28;20503;-75
2021/12/23 04:42:17;;;;;;;76.05;22.13;;;;;;;;;;5040048;28;20044;-76
2021/12/23 04:44:45;;;;;;;64.63;22.80;;;;;;;;;;5040347;28;20307;-76
2021/12/23 04:47:13;;;;;;;84.22;22.85;;;;;;;;;;5042290;28;20013;-76
2021/12/23 04:49:47;;;;;;;70.00;23.77;;;;;;;;;;5040708;28;20021;-77
2021/12/23 04:52:24;;;;;;;70.97;25.88;;;;;;;;;;5039968;28;20012;-76
2021/12/23 04:54:58;;;;;;;68.65;22.98;;;;;;;;;;5040140;28;20036;-76
2021/12/23 04:57:29;;;;;;;81.50;26.60;;;;;;;;;;5043955;28;20027;-77
2021/12/23 04:59:55;;;;;;;58.25;21.13;;;;;;;;;;5042234;28;20039;-76
2021/12/23 05:02:25;;;;;;;78.00;25.80;;;;;;;;;;5058954;28;20013;-77
2021/12/23 05:04:54;;;;;;;76.78;25.45;;;;;;;;;;5042019;28;20050;-77
2021/12/23 05:07:21;;;;;;;72.13;21.13;;;;;;;;;;5041689;28;20035;-75
2021/12/23 05:09:52;;;;;;;67.85;21.38;;;;;;;;;;5056769;28;20212;-76
2021/12/23 05:12:27;;;;;;;65.90;22.23;;;;;;;;;;5041369;28;20146;-76
2021/12/23 05:14:55;;;;;;;67.57;22.55;;;;;;;;;;5046343;28;20019;-77
2021/12/23 05:17:23;;;;;;;79.22;26.15;;;;;;;;;;5079712;28;20015;-77
2021/12/23 05:19:50;;;;;;;99.32;28.40;;;;;;;;;;5055913;22;20059;-77
2021/12/23 05:22:17;;;;;;;98.72;31.50;;;;;;;;;;5045271;28;20334;-78
2021/12/23 05:24:53;;;;;;;97.38;32.90;;;;;;;;;;5046021;28;20415;-77
2021/12/23 05:27:19;;;;;;;78.97;30.45;;;;;;;;;;5058340;28;20020;-77
2021/12/23 05:29:45;;;;;;;103.63;33.00;;;;;;;;;;5043244;28;20121;-77
2021/12/23 05:32:18;;;;;;;117.65;33.90;;;;;;;;;;5044311;28;20025;-77
2021/12/23 05:34:48;;;;;;;92.38;32.13;;;;;;;;;;5043938;28;20107;-77
2021/12/23 05:37:16;;;;;;;87.07;29.23;;;;;;;;;;5060889;28;20032;-78
2021/12/23 05:39:53;;;;;;;91.70;32.50;;;;;;;;;;5060566;28;20037;-77
2021/12/23 05:42:26;;;;;;;92.72;28.42;;;;;;;;;;5043214;28;20445;-77
2021/12/23 05:44:53;;;;;;;82.78;29.55;;;;;;;;;;5043917;28;20023;-77
2021/12/23 05:47:23;;;;;;;89.20;31.88;;;;;;;;;;5043263;28;20028;-78
2021/12/23 05:49:50;;;;;;;107.03;35.42;;;;;;;;;;5045476;28;20024;-77
2021/12/23 05:52:18;;;;;;;90.80;33.67;;;;;;;;;;5043398;28;20054;-77
2021/12/23 05:54:46;;;;;;;87.47;31.92;;;;;;;;;;5044013;28;20025;-78
2021/12/23 05:57:15;;;;;;;109.55;29.65;;;;;;;;;;5041090;28;20381;-77
2021/12/23 05:59:44;;;;;;;64.97;27.35;;;;;;;;;;5040971;28;20037;-77
2021/12/23 06:02:11;;;;;;;67.95;26.52;;;;;;;;;;5060513;28;20513;-78
2021/12/23 06:04:36;;;;;;;76.78;23.88;;;;;;;;;;5076927;28;20051;-77
2021/12/23 06:07:03;;;;;;;83.15;24.77;;;;;;;;;;5075956;28;20441;-77
2021/12/23 06:09:37;;;;;;;86.95;25.85;;;;;;;;;;5056581;28;20016;-77
2021/12/23 06:12:06;;;;;;;75.43;23.33;;;;;;;;;;5041398;28;20020;-76
2021/12/23 06:14:35;;;;;;;76.15;23.17;;;;;;;;;;5056639;28;20395;-75
2021/12/23 06:17:02;;;;;;;68.43;22.60;;;;;;;;;;5041225;28;20028;-76
2021/12/23 06:19:28;;;;;;;73.60;23.52;;;;;;;;;;5057571;28;20093;-75
2021/12/23 06:21:54;;;;;;;78.25;25.25;;;;;;;;;;5077110;28;20021;-77
2021/12/23 06:24:20;;;;;;;77.00;24.10;;;;;;;;;;5056972;28;20065;-77
2021/12/23 06:26:46;;;;;;;86.03;21.35;;;;;;;;;;5042735;28;20380;-77
2021/12/23 06:29:13;;;;;;;83.18;21.75;;;;;;;;;;5043734;28;20036;-77
2021/12/23 06:31:39;;;;;;;67.80;20.55;;;;;;;;;;5060030;28;20020;-78
2021/12/23 06:34:05;;;;;;;81.15;25.67;;;;;;;;;;5059295;28;20024;-77
2021/12/23 06:36:32;;;;;;;84.60;24.42;;;;;;;;;;5060688;28;20072;-77
2021/12/23 06:38:58;;;;;;;65.80;22.23;;;;;;;;;;5058441;28;20370;-77
2021/12/23 06:41:24;;;;;;;79.65;20.30;;;;;;;;;;5043422;28;20021;-77
2021/12/23 06:43:50;;;;;;;87.60;20.02;;;;;;;;;;5059893;28;20048;-77
2021/12/23 06:46:17;;;;;;;86.30;21.00;;;;;;;;;;5059619;28;20019;-76
2021/12/23 06:48:43;;;;;;;84.05;19.00;;;;;;;;;;5059166;28;20028;-77
2021/12/23 06:51:09;;;;;;;67.45;21.70;;;;;;;;;;5077835;28;20102;-77
2021/12/23 06:53:36;;;;;;;64.47;17.95;;;;;;;;;;5059676;28;20028;-78
2021/12/23 06:56:02;;;;;;;71.25;18.05;;;;;;;;;;5060623;28;20017;-78
2021/12/23 06:58:31;;;;;;;53.83;14.35;;;;;;;;;;5043200;28;20457;-77
2021/12/23 07:01:00;;;;;;;64.03;15.48;;;;;;;;;;5061217;28;20052;-78
2021/12/23 07:03:35;;;;;;;75.28;18.13;;;;;;;;;;5059514;28;20372;-78
2021/12/23 07:06:06;;;;;;;66.40;17.90;;;;;;;;;;5059184;28;20016;-78
2021/12/23 07:08:35;;;;;;;59.17;19.38;;;;;;;;;;5044688;28;20078;-78
2021/12/23 07:11:01;;;;;;;83.20;19.30;;;;;;;;;;5042910;28;20012;-77
2021/12/23 07:13:28;;;;;;;90.53;22.58;;;;;;;;;;5077592;28;20059;-78
2021/12/23 07:15:56;;;;;;;79.72;20.38;;;;;;;;;;5060054;28;20013;-77
2021/12/23 07:18:22;;;;;;;71.88;22.25;;;;;;;;;;5059156;28;20033;-78
2021/12/23 07:20:48;;;;;;;100.03;19.67;;;;;;;;;;5077089;28;20024;-78
2021/12/23 07:23:14;;;;;;;71.30;24.10;;;;;;;;;;5059181;28;20024;-78
2021/12/23 07:25:40;;;;;;;76.70;24.17;;;;;;;;;;5060682;28;20120;-77
2021/12/23 07:28:06;;;;;;;59.78;21.42;;;;;;;;;;5058719;28;20158;-77
2021/12/23 07:30:32;;;;;;;62.13;17.95;;;;;;;;;;5056131;28;20111;-77
2021/12/23 07:33:00;;;;;;;73.70;16.42;;;;;;;;;;5042078;28;20442;-77
2021/12/23 07:35:26;;;;;;;70.03;21.40;;;;;;;;;;5059034;28;20025;-77
2021/12/23 07:37:52;;;;;;;78.97;22.38;;;;;;;;;;5058401;28;20078;-78
2021/12/23 07:40:19;;;;;;;67.82;17.80;;;;;;;;;;5059093;28;20016;-77
2021/12/23 07:43:09;;;;;;;67.18;17.38;;;;;;;;;;5059481;28;20031;-76
2021/12/23 07:45:36;;;;;;;67.47;16.75;;;;;;;;;;5076765;28;20101;-76
2021/12/23 07:48:03;;;;;;;61.30;15.95;;;;;;;;;;5060367;28;20024;-76
2021/12/23 07:50:29;;;;;;;54.92;15.48;;;;;;;;;;5058217;22;20047;-76
2021/12/23 07:52:56;;;;;;;77.03;19.50;;;;;;;;;;5041063;28;20017;-76
2021/12/23 07:55:23;;;;;;;65.63;18.55;;;;;;;;;;5039390;28;20552;-76
2021/12/23 07:57:50;;;;;;;83.95;20.90;;;;;;;;;;5037303;28;20013;-77
2021/12/23 08:00:16;;;;;;;82.68;19.02;;;;;;;;;;5023992;28;20078;-76
2021/12/23 08:02:43;;;;;;;52.97;17.50;;;;;;;;;;5040527;28;20324;-77
2021/12/23 08:05:09;;;;;;;66.80;16.50;;;;;;;;;;5040180;28;20043;-76
2021/12/23 08:07:35;;;;;;;65.75;18.70;;;;;;;;;;5023502;28;20051;-76
2021/12/23 08:10:01;;;;;;;72.88;20.13;;;;;;;;;;5041518;28;20048;-76
2021/12/23 08:12:27;;;;;;;70.00;20.02;;;;;;;;;;5042568;28;20430;-76
2021/12/23 08:14:53;;;;;;;81.22;19.00;;;;;;;;;;5056416;28;20017;-76
2021/12/23 08:17:19;;;;;;;99.15;23.38;;;;;;;;;;5039596;28;20032;-76
2021/12/23 08:19:45;;;;;;;84.43;24.23;;;;;;;;;;5023538;28;20036;-76
2021/12/23 08:22:11;;;;;;;87.57;25.75;;;;;;;;;;5024902;28;20024;-76
2021/12/23 08:24:37;;;;;;;91.10;31.23;;;;;;;;;;5040277;28;20193;-76
2021/12/23 08:27:05;;;;;;;105.10;38.53;;;;;;;;;;5023412;28;20480;-76
2021/12/23 08:29:32;;;;;;;98.55;41.13;;;;;;;;;;5022822;28;20291;-76
2021/12/23 08:32:13;;;;;;;116.95;40.10;;;;;;;;;;5058697;28;20013;-76
2021/12/23 08:34:39;;;;;;;107.32;38.85;;;;;;;;;;5059088;28;20028;-76
2021/12/23 08:37:07;;;;;;;91.47;38.25;;;;;;;;;;5024128;28;20055;-76
2021/12/23 08:39:35;;;;;;;94.28;28.98;;;;;;;;;;5024169;28;20033;-76
2021/12/23 08:42:04;;;;;;;85.80;22.45;;;;;;;;;;5022837;28;20446;-76
2021/12/23 08:44:30;;;;;;;58.63;19.92;;;;;;;;;;5022795;28;20032;-77
2021/12/23 08:46:57;;;;;;;66.63;20.20;;;;;;;;;;5025443;28;20039;-77
2021/12/23 08:49:23;;;;;;;63.42;18.42;;;;;;;;;;5023007;28;20035;-77
2021/12/23 08:51:49;;;;;;;68.53;21.48;;;;;;;;;;5039521;28;20025;-76
2021/12/23 08:54:16;;;;;;;77.35;19.42;;;;;;;;;;5023541;28;20036;-77
2021/12/23 08:56:43;;;;;;;68.20;20.25;;;;;;;;;;5023235;28;20045;-76
2021/12/23 08:59:09;;;;;;;63.95;18.30;;;;;;;;;;5023159;28;20037;-77
2021/12/23 09:01:35;;;;;;;87.07;20.40;;;;;;;;;;5057828;28;20067;-76
2021/12/23 09:04:02;;;;;;;57.53;16.92;;;;;;;;;;5040117;28;20056;-76
2021/12/23 09:06:27;;;;;;;76.90;17.38;;;;;;;;;;5039583;28;20044;-77
2021/12/23 09:08:54;;;;;;;59.90;17.55;;;;;;;;;;5041255;28;20029;-76
2021/12/23 09:11:21;;;;;;;50.13;13.77;;;;;;;;;;5038804;28;20021;-77
2021/12/23 09:13:47;;;;;;;47.45;15.68;;;;;;;;;;5038089;28;20033;-76
2021/12/23 09:16:13;;;;;;;64.82;17.88;;;;;;;;;;5021388;28;20021;-76
2021/12/23 09:18:39;;;;;;;65.65;18.70;;;;;;;;;;5054862;28;20044;-75
2021/12/23 09:21:05;;;;;;;51.40;18.23;;;;;;;;;;5037742;28;20021;-76
2021/12/23 09:23:31;;;;;;;96.88;21.88;;;;;;;;;;5037434;28;20031;-75
2021/12/23 09:25:57;;;;;;;72.68;24.13;;;;;;;;;;5022168;28;20025;-76
2021/12/23 09:33:43;;;;;;;57.20;17.75;;;;;;;;;;5056153;28;20024;-76
2021/12/23 09:36:10;;;;;;;69.47;19.20;;;;;;;;;;5038803;28;20087;-76
2021/12/23 09:38:36;;;;;;;62.60;19.02;;;;;;;;;;5022095;28;20041;-76
2021/12/23 09:41:12;;;;;;;65.43;20.67;;;;;;;;;;5038621;28;20308;-75
2021/12/23 09:43:39;;;;;;;83.80;23.35;;;;;;;;;;5023455;28;20056;-76
2021/12/23 09:46:06;;;;;;;63.67;21.08;;;;;;;;;;5038951;28;20025;-76
2021/12/23 09:48:33;;;;;;;63.50;19.70;;;;;;;;;;5039484;28;20020;-76
2021/12/23 09:51:00;;;;;;;59.53;16.65;;;;;;;;;;5056577;28;20108;-77
2021/12/23 09:53:29;;;;;;;63.50;19.67;;;;;;;;;;5021916;28;20028;-76
2021/12/23 09:55:56;;;;;;;57.88;17.20;;;;;;;;;;5038634;28;20017;-76
2021/12/23 09:58:23;;;;;;;70.88;17.60;;;;;;;;;;5022227;28;20066;-77
2021/12/23 10:00:49;;;;;;;70.38;19.85;;;;;;;;;;5060570;28;20035;-77
2021/12/23 10:03:16;;;;;;;82.60;19.00;;;;;;;;;;5042533;28;20021;-77
2021/12/23 10:05:43;;;;;;;62.75;17.92;;;;;;;;;;5027024;28;20017;-76
2021/12/23 10:08:12;;;;;;;52.03;16.55;;;;;;;;;;5027086;28;20047;-78
2021/12/23 10:10:47;;;;;;;59.50;18.20;;;;;;;;;;5057516;28;20013;-76
2021/12/23 10:27:39;;;;;;;63.42;20.67;;;;;;;;;;5042231;28;20087;-79
2021/12/23 10:45:34;;;;;;;72.93;16.75;;;;;;;;;;5039080;28;20080;-76
2021/12/23 10:53:03;;;;;;;64.30;16.60;;;;;;;;;;5275068;22;20047;-79
2021/12/23 10:58:16;;;;;;;61.95;17.25;;;;;;;;;;5079707;28;20035;-80
2021/12/23 11:00:45;;;;;;;53.13;14.95;;;;;;;;;;5062721;28;20024;-80
2021/12/23 11:03:25;;;;;;;72.88;16.60;;;;;;;;;;5080707;28;20128;-82
2021/12/23 11:06:14;;;;;;;61.38;13.95;;;;;;;;;;5061914;28;20337;-81
2021/12/23 11:46:38;;;;;;;92.20;24.42;;;;;;;;;;5086013;22;20309;-77
2021/12/23 11:54:58;;;;;;;75.60;28.00;;;;;;;;;;5105719;22;20105;-76
2021/12/23 12:01:28;;;;;;;73.82;25.33;;;;;;;;;;5090345;22;20198;-77
2021/12/23 12:07:10;;;;;;;70.55;25.27;;;;;;;;;;5081426;22;20373;-75
2021/12/23 12:09:58;;;;;;;79.18;25.02;;;;;;;;;;5090427;22;20068;-76
2021/12/23 12:12:25;;;;;;;72.30;26.05;;;;;;;;;;5060271;28;20025;-76
2021/12/23 12:14:55;;;;;;;69.23;25.20;;;;;;;;;;5059744;28;20020;-76
2021/12/23 12:17:33;;;;;;;77.22;30.50;;;;;;;;;;5026933;28;20028;-77
2021/12/23 12:20:00;;;;;;;94.57;31.85;;;;;;;;;;5043269;28;20476;-76
2021/12/23 12:22:45;;;;;;;77.50;30.20;;;;;;;;;;5042227;28;20406;-76
2021/12/23 12:25:23;;;;;;;92.95;30.98;;;;;;;;;;5059762;28;20522;-77
2021/12/23 12:27:50;;;;;;;67.28;28.88;;;;;;;;;;5042939;28;20025;-76
2021/12/23 12:30:18;;;;;;;91.75;32.90;;;;;;;;;;5076863;28;20024;-75
2021/12/23 12:32:44;;;;;;;73.05;32.08;;;;;;;;;;5078034;28;20073;-75
2021/12/23 12:35:14;;;;;;;95.93;32.47;;;;;;;;;;5059503;28;20055;-76
2021/12/23 12:37:43;;;;;;;71.75;29.10;;;;;;;;;;5059367;28;20486;-75
2021/12/23 12:40:10;;;;;;;75.70;26.42;;;;;;;;;;5043359;28;20058;-76
2021/12/23 12:42:41;;;;;;;79.72;32.00;;;;;;;;;;5043569;28;20403;-76
2021/12/23 12:45:15;;;;;;;73.07;31.92;;;;;;;;;;5042964;28;20334;-77
2021/12/23 12:47:49;;;;;;;76.57;28.27;;;;;;;;;;5043263;28;20016;-75
2021/12/23 12:50:17;;;;;;;77.72;30.13;;;;;;;;;;5043156;28;20093;-76
2021/12/23 12:52:44;;;;;;;70.07;27.98;;;;;;;;;;5077691;28;20361;-74
2021/12/23 12:55:12;;;;;;;81.95;30.42;;;;;;;;;;5043225;28;20422;-76
2021/12/23 12:57:41;;;;;;;71.70;26.60;;;;;;;;;;5042942;28;20024;-76
2021/12/23 13:00:28;;;;;;;75.43;25.90;;;;;;;;;;5077537;28;20032;-75
2021/12/23 13:02:56;;;;;;;74.90;26.13;;;;;;;;;;5043032;28;20419;-75
2021/12/23 13:05:27;;;;;;;61.63;26.90;;;;;;;;;;5059674;28;20036;-76
2021/12/23 13:07:53;;;;;;;67.47;24.45;;;;;;;;;;5042534;28;20020;-75
2021/12/23 13:10:27;;;;;;;60.17;24.52;;;;;;;;;;5059284;28;20067;-75
2021/12/23 13:12:54;;;;;;;60.40;26.80;;;;;;;;;;5042265;28;20020;-76
2021/12/23 13:15:31;;;;;;;54.47;23.08;;;;;;;;;;5060143;28;20017;-76
2021/12/23 13:18:02;;;;;;;73.35;25.63;;;;;;;;;;5077666;28;20020;-75
2021/12/23 13:20:32;;;;;;;61.25;22.55;;;;;;;;;;5058550;28;20116;-76
2021/12/23 13:23:01;;;;;;;59.50;22.75;;;;;;;;;;5058696;28;20020;-76
2021/12/23 13:25:27;;;;;;;68.30;21.75;;;;;;;;;;5059178;28;20488;-76
2021/12/23 13:27:54;;;;;;;48.53;21.15;;;;;;;;;;5059332;28;20024;-76
2021/12/23 13:30:20;;;;;;;60.53;20.42;;;;;;;;;;5043739;28;20017;-77
2021/12/23 13:32:57;;;;;;;56.13;19.73;;;;;;;;;;5059199;28;20404;-75
2021/12/23 13:35:25;;;;;;;54.75;21.80;;;;;;;;;;5063036;28;20019;-75
2021/12/23 13:37:51;;;;;;;62.33;20.13;;;;;;;;;;5062705;28;20097;-77
2021/12/23 13:40:30;;;;;;;63.33;22.75;;;;;;;;;;5062750;28;20123;-75
2021/12/23 13:42:56;;;;;;;75.93;22.88;;;;;;;;;;5063495;28;20480;-75
2021/12/23 13:45:24;;;;;;;66.38;21.90;;;;;;;;;;5063022;28;20437;-75
2021/12/23 13:47:51;;;;;;;45.10;16.90;;;;;;;;;;5063416;28;20475;-75
2021/12/23 13:50:18;;;;;;;54.42;18.25;;;;;;;;;;5046564;28;20056;-75
2021/12/23 13:52:47;;;;;;;53.10;18.38;;;;;;;;;;5063078;28;20028;-75
2021/12/23 13:55:15;;;;;;;47.28;16.88;;;;;;;;;;5063650;28;20028;-76
2021/12/23 13:57:45;;;;;;;51.60;15.02;;;;;;;;;;5047113;28;20426;-75
2021/12/23 14:00:13;;;;;;;81.70;30.20;;;;;;;;;;5081629;28;20127;-75
2021/12/23 14:02:42;;;;;;;90.10;40.47;;;;;;;;;;5062751;28;20017;-75
2021/12/23 14:05:09;;;;;;;161.68;71.88;;;;;;;;;;5046490;28;20031;-75
2021/12/23 14:07:38;;;;;;;159.95;75.65;;;;;;;;;;5046367;28;20023;-75
2021/12/23 14:10:04;;;;;;;226.75;100.00;;;;;;;;;;5046583;28;20029;-75
2021/12/23 14:12:49;;;;;;;253.25;117.65;;;;;;;;;;5046382;28;20326;-75
2021/12/23 14:15:18;;;;;;;229.50;103.13;;;;;;;;;;5079634;28;20024;-76
2021/12/23 14:17:59;;;;;;;210.75;93.18;;;;;;;;;;5081291;28;20021;-75
2021/12/23 14:23:14;;;;;;;184.75;82.05;;;;;;;;;;5079990;28;20021;-74
2021/12/23 14:25:56;;;;;;;168.43;78.35;;;;;;;;;;5080493;28;20027;-75
2021/12/23 14:28:25;;;;;;;173.70;76.95;;;;;;;;;;5062274;28;20411;-75
2021/12/23 14:30:53;;;;;;;169.88;78.05;;;;;;;;;;5061709;28;20024;-75
2021/12/23 14:33:27;;;;;;;159.23;71.70;;;;;;;;;;5080167;28;20035;-75
2021/12/23 14:36:02;;;;;;;165.73;75.97;;;;;;;;;;5062621;28;20021;-75
2021/12/23 14:38:30;;;;;;;151.95;70.88;;;;;;;;;;5079300;28;20033;-75
2021/12/23 14:40:57;;;;;;;165.88;73.57;;;;;;;;;;5052341;23;20033;-74
2021/12/23 14:43:23;;;;;;;149.15;60.20;;;;;;;;;;5079543;28;20020;-75
2021/12/23 14:45:58;;;;;;;148.18;59.78;;;;;;;;;;5061352;28;20039;-76
2021/12/23 14:48:32;;;;;;;130.65;56.90;;;;;;;;;;5045300;28;20244;-75
2021/12/23 14:51:01;;;;;;;145.80;54.42;;;;;;;;;;5045928;28;20422;-74
2021/12/23 14:53:28;;;;;;;111.27;48.40;;;;;;;;;;5062936;28;20119;-75
2021/12/23 14:55:57;;;;;;;133.80;54.88;;;;;;;;;;5045231;28;20074;-75
2021/12/23 14:58:24;;;;;;;111.85;55.00;;;;;;;;;;5079602;28;20078;-75
2021/12/23 15:00:52;;;;;;;129.00;59.40;;;;;;;;;;5079431;28;20027;-75
2021/12/23 15:03:25;;;;;;;127.82;54.70;;;;;;;;;;5045012;28;20020;-75
2021/12/23 15:05:52;;;;;;;132.93;54.95;;;;;;;;;;5062264;28;20048;-75
2021/12/23 15:08:21;;;;;;;113.60;50.70;;;;;;;;;;5047001;28;20032;-75
2021/12/23 15:11:20;;;;;;;125.68;50.15;;;;;;;;;;5062915;28;20044;-75
2021/12/23 15:13:46;;;;;;;107.35;52.03;;;;;;;;;;5041992;28;20053;-75
2021/12/23 15:16:21;;;;;;;115.63;49.35;;;;;;;;;;5061601;28;20025;-75
2021/12/23 15:21:41;;;;;;;102.80;44.55;;;;;;;;;;5061261;28;20362;-75
2021/12/23 15:24:16;;;;;;;104.53;44.08;;;;;;;;;;5061747;28;20028;-75
2021/12/23 15:26:56;;;;;;;114.53;41.05;;;;;;;;;;5045236;28;20028;-74
2021/12/23 15:29:30;;;;;;;86.93;35.80;;;;;;;;;;5044116;28;20504;-75
2021/12/23 15:32:06;;;;;;;80.13;29.13;;;;;;;;;;5044754;28;20032;-75
2021/12/23 15:34:34;;;;;;;83.32;29.05;;;;;;;;;;5061029;28;20047;-74
2021/12/23 15:37:01;;;;;;;91.57;27.65;;;;;;;;;;5059940;28;20021;-74
2021/12/23 15:39:30;;;;;;;52.92;19.88;;;;;;;;;;5060912;28;20032;-75
2021/12/23 15:41:56;;;;;;;55.63;20.65;;;;;;;;;;5060656;28;20027;-74
2021/12/23 15:44:24;;;;;;;58.40;21.80;;;;;;;;;;5078338;28;20079;-75
2021/12/23 15:46:50;;;;;;;71.82;22.48;;;;;;;;;;5044039;28;20082;-74
2021/12/23 15:49:17;;;;;;;66.07;22.45;;;;;;;;;;5060737;28;20025;-74
2021/12/23 15:51:44;;;;;;;72.30;23.88;;;;;;;;;;5060973;28;20421;-75
2021/12/23 15:54:11;;;;;;;71.40;22.73;;;;;;;;;;5059921;28;20070;-75
2021/12/23 15:56:37;;;;;;;70.70;24.13;;;;;;;;;;5078790;28;20411;-75
2021/12/23 15:59:04;;;;;;;67.95;20.75;;;;;;;;;;5060723;28;20427;-74
2021/12/23 16:01:30;;;;;;;76.72;24.40;;;;;;;;;;5043825;28;20074;-75
2021/12/23 16:03:57;;;;;;;55.47;20.88;;;;;;;;;;5061224;28;20029;-74
2021/12/23 16:09:08;;;;;;;59.92;21.45;;;;;;;;;;5046524;28;20032;-74
2021/12/23 16:11:35;;;;;;;66.93;24.80;;;;;;;;;;5060606;28;20068;-75
2021/12/23 16:14:01;;;;;;;67.03;24.50;;;;;;;;;;5059930;28;20048;-74
2021/12/23 16:16:27;;;;;;;73.18;23.02;;;;;;;;;;5059479;28;20025;-76
2021/12/23 16:18:53;;;;;;;66.03;22.73;;;;;;;;;;5059895;28;20039;-74
2021/12/23 16:21:20;;;;;;;74.78;22.98;;;;;;;;;;5043846;28;20023;-74